sensor_id;sensor_type;location;lat;lon;timestamp;noise_LAeq;noise_LA_min;noise_LA_max;noise_LA01;noise_LA95
186;Laerm;55473;48.800;9.002;2024-03-06T00:02:07;37.23;34.76;42.06;;
186;Laerm;55473;48.800;9.002;2024-03-06T00:04:34;37.01;34.46;46.24;;
186;Laerm;55473;48.800;9.002;2024-03-06T00:07:00;36.97;34.39;42.25;;
186;Laerm;55473;48.800;9.002;2024-03-06T00:09:45;36.99;34.37;46.20;;
186;Laerm;55473;48.800;9.002;2024-03-06T00:12:20;37.82;34.71;45.88;;
186;Laerm;55473;48.800;9.002;2024-03-06T00:14:46;41.50;34.97;52.57;;
186;Laerm;55473;48.800;9.002;2024-03-06T00:17:12;38.29;34.62;46.52;;
186;Laerm;55473;48.800;9.002;2024-03-06T00:19:41;37.34;35.08;42.66;;
186;Laerm;55473;48.800;9.002;2024-03-06T00:22:10;37.29;35.02;41.91;;
186;Laerm;55473;48.800;9.002;2024-03-06T00:24:36;37.22;34.68;42.69;;
186;Laerm;55473;48.800;9.002;2024-03-06T00:27:02;38.14;34.62;48.79;;
186;Laerm;55473;48.800;9.002;2024-03-06T00:29:30;37.39;35.27;41.67;;
186;Laerm;55473;48.800;9.002;2024-03-06T00:31:57;37.21;34.69;43.03;;
186;Laerm;55473;48.800;9.002;2024-03-06T00:34:23;36.73;34.62;41.35;;
186;Laerm;55473;48.800;9.002;2024-03-06T00:36:49;37.47;34.37;44.32;;
186;Laerm;55473;48.800;9.002;2024-03-06T00:39:15;37.26;34.27;42.25;;
186;Laerm;55473;48.800;9.002;2024-03-06T00:41:41;37.56;34.82;42.46;;
186;Laerm;55473;48.800;9.002;2024-03-06T00:44:07;37.38;34.16;45.45;;
186;Laerm;55473;48.800;9.002;2024-03-06T00:46:33;37.79;34.85;45.26;;
186;Laerm;55473;48.800;9.002;2024-03-06T00:49:00;38.14;35.00;44.70;;
186;Laerm;55473;48.800;9.002;2024-03-06T00:51:26;37.12;34.67;41.90;;
186;Laerm;55473;48.800;9.002;2024-03-06T00:53:52;37.29;34.68;43.96;;
186;Laerm;55473;48.800;9.002;2024-03-06T00:56:17;37.10;34.49;45.80;;
186;Laerm;55473;48.800;9.002;2024-03-06T00:58:43;37.24;34.59;44.20;;
186;Laerm;55473;48.800;9.002;2024-03-06T01:01:09;37.31;34.96;45.20;;
186;Laerm;55473;48.800;9.002;2024-03-06T01:03:35;37.03;34.54;42.84;;
186;Laerm;55473;48.800;9.002;2024-03-06T01:06:03;36.99;34.74;41.13;;
186;Laerm;55473;48.800;9.002;2024-03-06T01:08:32;37.41;34.67;46.64;;
186;Laerm;55473;48.800;9.002;2024-03-06T01:10:58;37.14;34.88;42.04;;
186;Laerm;55473;48.800;9.002;2024-03-06T01:13:27;37.06;34.06;43.93;;
186;Laerm;55473;48.800;9.002;2024-03-06T01:15:53;37.31;34.71;44.65;;
186;Laerm;55473;48.800;9.002;2024-03-06T01:18:19;37.39;34.71;43.98;;
186;Laerm;55473;48.800;9.002;2024-03-06T01:20:45;37.95;34.59;45.88;;
186;Laerm;55473;48.800;9.002;2024-03-06T01:23:11;37.21;34.45;45.22;;
186;Laerm;55473;48.800;9.002;2024-03-06T01:25:37;36.80;34.21;45.66;;
186;Laerm;55473;48.800;9.002;2024-03-06T01:28:03;36.74;34.31;43.44;;
186;Laerm;55473;48.800;9.002;2024-03-06T01:30:29;37.07;34.30;43.96;;
186;Laerm;55473;48.800;9.002;2024-03-06T01:32:55;36.92;34.18;44.36;;
186;Laerm;55473;48.800;9.002;2024-03-06T01:35:21;37.58;34.38;48.80;;
186;Laerm;55473;48.800;9.002;2024-03-06T01:37:46;36.80;34.50;47.14;;
186;Laerm;55473;48.800;9.002;2024-03-06T01:40:13;36.91;34.48;45.82;;
186;Laerm;55473;48.800;9.002;2024-03-06T01:42:39;36.82;34.29;41.85;;
186;Laerm;55473;48.800;9.002;2024-03-06T01:45:06;37.04;34.74;43.83;;
186;Laerm;55473;48.800;9.002;2024-03-06T01:47:36;37.03;34.64;41.81;;
186;Laerm;55473;48.800;9.002;2024-03-06T01:50:03;37.37;34.39;42.11;;
186;Laerm;55473;48.800;9.002;2024-03-06T01:52:31;37.08;34.49;45.34;;
186;Laerm;55473;48.800;9.002;2024-03-06T01:54:57;36.97;34.29;47.47;;
186;Laerm;55473;48.800;9.002;2024-03-06T01:57:28;37.02;34.57;46.11;;
186;Laerm;55473;48.800;9.002;2024-03-06T01:59:54;37.02;34.42;46.89;;
186;Laerm;55473;48.800;9.002;2024-03-06T02:02:21;37.03;34.46;44.62;;
186;Laerm;55473;48.800;9.002;2024-03-06T02:04:47;37.13;34.54;45.58;;
186;Laerm;55473;48.800;9.002;2024-03-06T02:07:14;37.03;34.37;45.20;;
186;Laerm;55473;48.800;9.002;2024-03-06T02:09:43;37.00;34.40;45.48;;
186;Laerm;55473;48.800;9.002;2024-03-06T02:12:09;37.12;34.67;44.52;;
186;Laerm;55473;48.800;9.002;2024-03-06T02:14:37;36.88;34.55;45.33;;
186;Laerm;55473;48.800;9.002;2024-03-06T02:17:03;36.94;34.45;44.61;;
186;Laerm;55473;48.800;9.002;2024-03-06T02:19:43;37.44;34.48;46.09;;
186;Laerm;55473;48.800;9.002;2024-03-06T02:22:13;36.86;34.50;44.81;;
186;Laerm;55473;48.800;9.002;2024-03-06T02:24:44;36.76;34.41;44.07;;
186;Laerm;55473;48.800;9.002;2024-03-06T02:27:17;36.92;34.34;43.71;;
186;Laerm;55473;48.800;9.002;2024-03-06T02:29:43;36.78;34.55;44.44;;
186;Laerm;55473;48.800;9.002;2024-03-06T02:32:13;37.12;34.78;44.74;;
186;Laerm;55473;48.800;9.002;2024-03-06T02:34:44;36.91;34.50;43.66;;
186;Laerm;55473;48.800;9.002;2024-03-06T02:37:10;37.79;34.58;45.19;;
186;Laerm;55473;48.800;9.002;2024-03-06T02:39:36;37.63;34.21;45.49;;
186;Laerm;55473;48.800;9.002;2024-03-06T02:42:02;36.78;34.29;43.55;;
186;Laerm;55473;48.800;9.002;2024-03-06T02:44:27;36.91;34.50;42.99;;
186;Laerm;55473;48.800;9.002;2024-03-06T02:46:53;36.73;34.48;41.77;;
186;Laerm;55473;48.800;9.002;2024-03-06T02:49:19;38.94;34.85;47.01;;
186;Laerm;55473;48.800;9.002;2024-03-06T02:51:45;36.94;34.37;42.52;;
186;Laerm;55473;48.800;9.002;2024-03-06T02:54:11;37.62;34.51;42.99;;
186;Laerm;55473;48.800;9.002;2024-03-06T02:56:37;39.96;35.49;49.68;;
186;Laerm;55473;48.800;9.002;2024-03-06T02:59:03;41.58;34.16;53.47;;
186;Laerm;55473;48.800;9.002;2024-03-06T03:01:30;38.24;34.95;45.78;;
186;Laerm;55473;48.800;9.002;2024-03-06T03:03:56;44.54;34.97;57.31;;
186;Laerm;55473;48.800;9.002;2024-03-06T03:06:25;41.71;35.16;55.75;;
186;Laerm;55473;48.800;9.002;2024-03-06T03:08:51;41.12;34.85;54.23;;
186;Laerm;55473;48.800;9.002;2024-03-06T03:11:17;40.24;34.74;51.17;;
186;Laerm;55473;48.800;9.002;2024-03-06T03:13:46;40.05;34.56;52.35;;
186;Laerm;55473;48.800;9.002;2024-03-06T03:16:19;39.90;34.89;52.44;;
186;Laerm;55473;48.800;9.002;2024-03-06T03:18:46;42.41;35.16;55.42;;
186;Laerm;55473;48.800;9.002;2024-03-06T03:21:14;41.25;35.09;54.09;;
186;Laerm;55473;48.800;9.002;2024-03-06T03:23:40;40.73;34.32;54.26;;
186;Laerm;55473;48.800;9.002;2024-03-06T03:26:08;41.10;35.05;52.56;;
186;Laerm;55473;48.800;9.002;2024-03-06T03:28:39;50.23;35.44;61.63;;
186;Laerm;55473;48.800;9.002;2024-03-06T03:31:09;41.21;34.96;52.96;;
186;Laerm;55473;48.800;9.002;2024-03-06T03:33:39;40.92;34.99;54.43;;
186;Laerm;55473;48.800;9.002;2024-03-06T03:36:06;41.31;35.14;53.82;;
186;Laerm;55473;48.800;9.002;2024-03-06T03:38:33;41.68;35.38;54.87;;
186;Laerm;55473;48.800;9.002;2024-03-06T03:41:10;43.33;36.08;58.55;;
186;Laerm;55473;48.800;9.002;2024-03-06T03:43:41;41.06;35.41;53.12;;
186;Laerm;55473;48.800;9.002;2024-03-06T03:46:07;41.18;35.97;55.59;;
186;Laerm;55473;48.800;9.002;2024-03-06T03:48:34;46.52;36.25;58.62;;
186;Laerm;55473;48.800;9.002;2024-03-06T03:51:05;42.89;36.91;55.46;;
186;Laerm;55473;48.800;9.002;2024-03-06T03:53:35;40.71;35.73;57.67;;
186;Laerm;55473;48.800;9.002;2024-03-06T03:56:02;39.87;35.23;52.62;;
186;Laerm;55473;48.800;9.002;2024-03-06T03:58:28;43.57;35.15;61.14;;
186;Laerm;55473;48.800;9.002;2024-03-06T04:00:55;48.17;35.17;61.99;;
186;Laerm;55473;48.800;9.002;2024-03-06T04:03:22;49.13;35.25;64.58;;
186;Laerm;55473;48.800;9.002;2024-03-06T04:05:48;49.12;35.81;64.57;;
186;Laerm;55473;48.800;9.002;2024-03-06T04:08:15;48.84;35.46;65.19;;
186;Laerm;55473;48.800;9.002;2024-03-06T04:10:44;49.40;36.26;65.85;;
186;Laerm;55473;48.800;9.002;2024-03-06T04:13:11;49.70;37.05;64.95;;
186;Laerm;55473;48.800;9.002;2024-03-06T04:15:38;51.95;36.01;67.19;;
186;Laerm;55473;48.800;9.002;2024-03-06T04:18:04;52.96;36.92;69.06;;
186;Laerm;55473;48.800;9.002;2024-03-06T04:20:30;53.77;35.97;69.53;;
186;Laerm;55473;48.800;9.002;2024-03-06T04:22:56;59.05;36.79;75.06;;
186;Laerm;55473;48.800;9.002;2024-03-06T04:25:22;60.68;36.50;76.55;;
186;Laerm;55473;48.800;9.002;2024-03-06T04:27:49;60.35;36.81;77.15;;
186;Laerm;55473;48.800;9.002;2024-03-06T04:30:15;61.17;37.65;78.09;;
186;Laerm;55473;48.800;9.002;2024-03-06T04:32:41;61.15;38.11;74.65;;
186;Laerm;55473;48.800;9.002;2024-03-06T04:35:07;60.67;39.86;79.86;;
186;Laerm;55473;48.800;9.002;2024-03-06T04:37:35;59.86;39.03;74.56;;
186;Laerm;55473;48.800;9.002;2024-03-06T04:40:03;61.40;39.42;78.64;;
186;Laerm;55473;48.800;9.002;2024-03-06T04:42:36;58.47;38.65;75.17;;
186;Laerm;55473;48.800;9.002;2024-03-06T04:45:04;59.91;38.71;75.74;;
186;Laerm;55473;48.800;9.002;2024-03-06T04:47:30;61.75;39.38;76.29;;
186;Laerm;55473;48.800;9.002;2024-03-06T04:49:57;60.91;38.65;75.81;;
186;Laerm;55473;48.800;9.002;2024-03-06T04:52:23;60.97;38.90;75.68;;
186;Laerm;55473;48.800;9.002;2024-03-06T04:54:49;57.95;38.87;79.90;;
186;Laerm;55473;48.800;9.002;2024-03-06T04:57:15;59.44;38.74;74.76;;
186;Laerm;55473;48.800;9.002;2024-03-06T04:59:41;59.05;38.54;76.83;;
186;Laerm;55473;48.800;9.002;2024-03-06T05:02:06;58.69;40.09;75.75;;
186;Laerm;55473;48.800;9.002;2024-03-06T05:04:32;60.34;40.55;75.01;;
186;Laerm;55473;48.800;9.002;2024-03-06T05:07:04;61.11;40.34;74.93;;
186;Laerm;55473;48.800;9.002;2024-03-06T05:09:36;59.87;40.21;74.12;;
186;Laerm;55473;48.800;9.002;2024-03-06T05:12:02;60.29;39.94;74.41;;
186;Laerm;55473;48.800;9.002;2024-03-06T05:14:28;60.45;40.81;74.30;;
186;Laerm;55473;48.800;9.002;2024-03-06T05:16:54;60.98;42.82;74.71;;
186;Laerm;55473;48.800;9.002;2024-03-06T05:19:20;60.98;40.98;75.84;;
186;Laerm;55473;48.800;9.002;2024-03-06T05:21:46;53.72;39.37;72.01;;
186;Laerm;55473;48.800;9.002;2024-03-06T05:24:12;54.58;39.01;70.47;;
186;Laerm;55473;48.800;9.002;2024-03-06T05:26:38;59.15;40.18;70.33;;
186;Laerm;55473;48.800;9.002;2024-03-06T05:29:04;58.10;41.76;70.49;;
186;Laerm;55473;48.800;9.002;2024-03-06T05:31:30;57.73;41.10;71.49;;
186;Laerm;55473;48.800;9.002;2024-03-06T05:34:02;51.29;41.69;70.74;;
186;Laerm;55473;48.800;9.002;2024-03-06T05:36:28;47.66;40.67;66.30;;
186;Laerm;55473;48.800;9.002;2024-03-06T05:38:55;47.14;40.51;63.59;;
186;Laerm;55473;48.800;9.002;2024-03-06T05:41:20;47.87;41.06;64.15;;
186;Laerm;55473;48.800;9.002;2024-03-06T05:43:46;48.71;40.13;65.91;;
186;Laerm;55473;48.800;9.002;2024-03-06T05:46:12;46.07;39.39;65.55;;
186;Laerm;55473;48.800;9.002;2024-03-06T05:48:38;46.39;39.48;64.48;;
186;Laerm;55473;48.800;9.002;2024-03-06T05:51:05;50.33;41.44;59.94;;
186;Laerm;55473;48.800;9.002;2024-03-06T05:53:37;48.73;41.40;66.77;;
186;Laerm;55473;48.800;9.002;2024-03-06T05:56:08;48.61;41.80;63.03;;
186;Laerm;55473;48.800;9.002;2024-03-06T05:58:34;50.04;42.32;64.53;;
186;Laerm;55473;48.800;9.002;2024-03-06T06:01:00;52.61;40.72;68.54;;
186;Laerm;55473;48.800;9.002;2024-03-06T06:03:27;47.91;42.27;65.45;;
186;Laerm;55473;48.800;9.002;2024-03-06T06:05:54;48.51;42.97;66.62;;
186;Laerm;55473;48.800;9.002;2024-03-06T06:08:20;46.71;41.98;62.59;;
186;Laerm;55473;48.800;9.002;2024-03-06T06:10:46;50.88;41.81;66.56;;
186;Laerm;55473;48.800;9.002;2024-03-06T06:13:15;48.23;40.80;67.00;;
186;Laerm;55473;48.800;9.002;2024-03-06T06:15:41;48.12;42.08;68.24;;
186;Laerm;55473;48.800;9.002;2024-03-06T06:18:07;50.53;42.18;66.67;;
186;Laerm;55473;48.800;9.002;2024-03-06T06:20:33;49.49;42.41;66.51;;
186;Laerm;55473;48.800;9.002;2024-03-06T06:23:02;54.80;42.25;65.28;;
186;Laerm;55473;48.800;9.002;2024-03-06T06:25:28;47.78;40.92;64.28;;
186;Laerm;55473;48.800;9.002;2024-03-06T06:27:57;48.23;41.38;69.38;;
186;Laerm;55473;48.800;9.002;2024-03-06T06:30:23;48.84;43.36;68.86;;
186;Laerm;55473;48.800;9.002;2024-03-06T06:32:49;50.43;43.51;65.31;;
186;Laerm;55473;48.800;9.002;2024-03-06T06:35:15;48.24;42.82;64.13;;
186;Laerm;55473;48.800;9.002;2024-03-06T06:37:40;49.28;42.27;65.80;;
186;Laerm;55473;48.800;9.002;2024-03-06T06:40:07;48.12;42.74;64.95;;
186;Laerm;55473;48.800;9.002;2024-03-06T06:42:35;49.77;41.33;67.39;;
186;Laerm;55473;48.800;9.002;2024-03-06T06:45:01;49.12;42.11;70.30;;
186;Laerm;55473;48.800;9.002;2024-03-06T06:47:28;46.67;40.49;67.73;;
186;Laerm;55473;48.800;9.002;2024-03-06T06:49:54;48.30;41.41;66.30;;
186;Laerm;55473;48.800;9.002;2024-03-06T06:52:20;48.64;41.30;67.17;;
186;Laerm;55473;48.800;9.002;2024-03-06T06:54:46;53.25;41.57;68.00;;
186;Laerm;55473;48.800;9.002;2024-03-06T06:57:12;48.53;41.86;66.60;;
186;Laerm;55473;48.800;9.002;2024-03-06T06:59:38;49.02;41.96;68.19;;
186;Laerm;55473;48.800;9.002;2024-03-06T07:02:04;49.12;40.61;67.81;;
186;Laerm;55473;48.800;9.002;2024-03-06T07:04:30;50.70;42.33;69.10;;
186;Laerm;55473;48.800;9.002;2024-03-06T07:06:57;49.70;41.83;68.17;;
186;Laerm;55473;48.800;9.002;2024-03-06T07:09:23;49.08;42.96;70.30;;
186;Laerm;55473;48.800;9.002;2024-03-06T07:11:49;47.84;40.48;67.41;;
186;Laerm;55473;48.800;9.002;2024-03-06T07:14:15;48.21;41.42;67.93;;
186;Laerm;55473;48.800;9.002;2024-03-06T07:16:45;48.44;42.11;69.32;;
186;Laerm;55473;48.800;9.002;2024-03-06T07:19:11;51.08;41.81;68.90;;
186;Laerm;55473;48.800;9.002;2024-03-06T07:21:37;49.33;40.41;71.70;;
186;Laerm;55473;48.800;9.002;2024-03-06T07:24:04;48.56;40.15;69.82;;
186;Laerm;55473;48.800;9.002;2024-03-06T07:26:33;50.77;41.55;69.74;;
186;Laerm;55473;48.800;9.002;2024-03-06T07:28:59;51.99;41.07;68.65;;
186;Laerm;55473;48.800;9.002;2024-03-06T07:31:25;50.36;40.91;68.82;;
186;Laerm;55473;48.800;9.002;2024-03-06T07:33:51;49.37;40.37;66.85;;
186;Laerm;55473;48.800;9.002;2024-03-06T07:36:18;47.87;42.48;64.57;;
186;Laerm;55473;48.800;9.002;2024-03-06T07:38:44;48.70;43.06;67.64;;
186;Laerm;55473;48.800;9.002;2024-03-06T07:41:10;48.77;40.81;65.61;;
186;Laerm;55473;48.800;9.002;2024-03-06T07:43:37;48.45;41.30;68.35;;
186;Laerm;55473;48.800;9.002;2024-03-06T07:46:04;49.54;41.30;67.67;;
186;Laerm;55473;48.800;9.002;2024-03-06T07:48:37;47.76;40.71;69.04;;
186;Laerm;55473;48.800;9.002;2024-03-06T07:51:04;49.53;41.77;69.16;;
186;Laerm;55473;48.800;9.002;2024-03-06T07:53:30;53.37;40.26;72.01;;
186;Laerm;55473;48.800;9.002;2024-03-06T07:55:56;50.16;40.80;66.87;;
186;Laerm;55473;48.800;9.002;2024-03-06T07:58:22;48.55;41.28;68.62;;
186;Laerm;55473;48.800;9.002;2024-03-06T08:00:48;49.47;41.17;67.17;;
186;Laerm;55473;48.800;9.002;2024-03-06T08:03:14;50.60;41.27;71.64;;
186;Laerm;55473;48.800;9.002;2024-03-06T08:05:40;51.90;42.50;69.88;;
186;Laerm;55473;48.800;9.002;2024-03-06T08:08:06;50.18;42.36;74.32;;
186;Laerm;55473;48.800;9.002;2024-03-06T08:10:32;52.42;42.23;67.98;;
186;Laerm;55473;48.800;9.002;2024-03-06T08:12:59;50.24;42.71;69.03;;
186;Laerm;55473;48.800;9.002;2024-03-06T08:15:25;49.35;42.77;69.28;;
186;Laerm;55473;48.800;9.002;2024-03-06T08:17:50;48.29;41.21;69.98;;
186;Laerm;55473;48.800;9.002;2024-03-06T08:20:18;46.95;39.82;68.44;;
186;Laerm;55473;48.800;9.002;2024-03-06T08:22:44;49.06;43.67;63.13;;
186;Laerm;55473;48.800;9.002;2024-03-06T08:25:12;48.23;41.20;66.77;;
186;Laerm;55473;48.800;9.002;2024-03-06T08:27:42;45.84;40.44;69.55;;
186;Laerm;55473;48.800;9.002;2024-03-06T08:30:11;46.80;39.69;69.14;;
186;Laerm;55473;48.800;9.002;2024-03-06T08:32:44;48.78;38.96;65.72;;
186;Laerm;55473;48.800;9.002;2024-03-06T08:35:13;47.09;39.90;66.47;;
186;Laerm;55473;48.800;9.002;2024-03-06T08:37:42;49.36;39.06;66.80;;
186;Laerm;55473;48.800;9.002;2024-03-06T08:40:09;49.33;39.90;70.68;;
186;Laerm;55473;48.800;9.002;2024-03-06T08:42:49;54.54;39.95;70.84;;
186;Laerm;55473;48.800;9.002;2024-03-06T08:45:17;50.32;41.82;67.11;;
186;Laerm;55473;48.800;9.002;2024-03-06T08:47:44;51.08;41.05;77.05;;
186;Laerm;55473;48.800;9.002;2024-03-06T08:50:12;55.94;40.32;71.04;;
186;Laerm;55473;48.800;9.002;2024-03-06T08:52:39;52.35;39.88;68.76;;
186;Laerm;55473;48.800;9.002;2024-03-06T08:55:10;49.10;38.62;71.15;;
186;Laerm;55473;48.800;9.002;2024-03-06T08:57:37;52.44;39.09;69.49;;
186;Laerm;55473;48.800;9.002;2024-03-06T09:00:05;47.32;39.43;71.18;;
186;Laerm;55473;48.800;9.002;2024-03-06T09:02:37;47.14;40.01;65.41;;
186;Laerm;55473;48.800;9.002;2024-03-06T09:05:07;48.45;39.40;67.57;;
186;Laerm;55473;48.800;9.002;2024-03-06T09:07:36;46.88;39.81;70.51;;
186;Laerm;55473;48.800;9.002;2024-03-06T09:10:10;46.17;41.31;66.70;;
186;Laerm;55473;48.800;9.002;2024-03-06T09:12:37;46.89;39.70;67.22;;
186;Laerm;55473;48.800;9.002;2024-03-06T09:15:03;48.33;40.79;68.82;;
186;Laerm;55473;48.800;9.002;2024-03-06T09:17:30;50.77;39.46;71.52;;
186;Laerm;55473;48.800;9.002;2024-03-06T09:19:56;47.24;40.98;71.73;;
186;Laerm;55473;48.800;9.002;2024-03-06T09:22:22;52.67;40.63;69.33;;
186;Laerm;55473;48.800;9.002;2024-03-06T09:24:48;52.59;38.19;68.77;;
186;Laerm;55473;48.800;9.002;2024-03-06T09:27:16;52.15;39.51;71.70;;
186;Laerm;55473;48.800;9.002;2024-03-06T09:29:43;47.93;39.50;69.23;;
186;Laerm;55473;48.800;9.002;2024-03-06T09:32:08;52.28;40.73;63.85;;
186;Laerm;55473;48.800;9.002;2024-03-06T09:34:34;52.85;39.26;71.19;;
186;Laerm;55473;48.800;9.002;2024-03-06T09:37:00;45.98;38.33;65.74;;
186;Laerm;55473;48.800;9.002;2024-03-06T09:39:26;49.72;39.06;65.71;;
186;Laerm;55473;48.800;9.002;2024-03-06T09:41:54;54.67;39.76;65.50;;
186;Laerm;55473;48.800;9.002;2024-03-06T09:44:21;47.54;39.32;65.09;;
186;Laerm;55473;48.800;9.002;2024-03-06T09:46:49;50.17;40.25;66.48;;
186;Laerm;55473;48.800;9.002;2024-03-06T09:49:18;49.53;42.31;60.27;;
186;Laerm;55473;48.800;9.002;2024-03-06T09:51:46;53.32;41.42;76.59;;
186;Laerm;55473;48.800;9.002;2024-03-06T09:54:13;46.67;38.88;59.97;;
186;Laerm;55473;48.800;9.002;2024-03-06T09:56:43;49.88;38.91;68.69;;
186;Laerm;55473;48.800;9.002;2024-03-06T09:59:11;48.16;38.49;69.25;;
186;Laerm;55473;48.800;9.002;2024-03-06T10:04:32;48.51;42.38;63.14;;
186;Laerm;55473;48.800;9.002;2024-03-06T10:06:59;46.59;39.04;62.27;;
186;Laerm;55473;48.800;9.002;2024-03-06T10:09:27;50.08;38.75;62.76;;
186;Laerm;55473;48.800;9.002;2024-03-06T10:11:53;47.34;39.27;69.14;;
186;Laerm;55473;48.800;9.002;2024-03-06T10:14:21;45.11;39.21;62.13;;
186;Laerm;55473;48.800;9.002;2024-03-06T10:16:58;47.37;38.91;61.36;;
186;Laerm;55473;48.800;9.002;2024-03-06T10:19:27;46.46;40.47;56.73;;
186;Laerm;55473;48.800;9.002;2024-03-06T10:21:55;46.21;39.62;66.97;;
186;Laerm;55473;48.800;9.002;2024-03-06T10:24:25;44.23;37.89;63.47;;
186;Laerm;55473;48.800;9.002;2024-03-06T10:26:55;44.88;39.64;56.63;;
186;Laerm;55473;48.800;9.002;2024-03-06T10:29:30;48.03;37.90;68.69;;
186;Laerm;55473;48.800;9.002;2024-03-06T10:31:58;50.62;39.61;66.89;;
186;Laerm;55473;48.800;9.002;2024-03-06T10:34:26;46.04;38.89;57.08;;
186;Laerm;55473;48.800;9.002;2024-03-06T10:36:58;47.88;39.76;67.11;;
186;Laerm;55473;48.800;9.002;2024-03-06T10:39:26;43.49;38.92;56.56;;
186;Laerm;55473;48.800;9.002;2024-03-06T10:41:57;49.54;39.12;68.22;;
186;Laerm;55473;48.800;9.002;2024-03-06T10:44:27;46.04;39.29;58.43;;
186;Laerm;55473;48.800;9.002;2024-03-06T10:47:01;52.36;38.90;70.32;;
186;Laerm;55473;48.800;9.002;2024-03-06T10:49:29;55.01;41.44;70.43;;
186;Laerm;55473;48.800;9.002;2024-03-06T10:52:04;49.63;39.38;64.12;;
186;Laerm;55473;48.800;9.002;2024-03-06T10:54:34;52.61;39.92;70.95;;
186;Laerm;55473;48.800;9.002;2024-03-06T10:57:02;58.14;41.79;74.00;;
186;Laerm;55473;48.800;9.002;2024-03-06T10:59:29;56.33;42.07;68.12;;
186;Laerm;55473;48.800;9.002;2024-03-06T11:01:57;48.21;39.95;68.27;;
186;Laerm;55473;48.800;9.002;2024-03-06T11:04:30;46.08;40.31;54.73;;
186;Laerm;55473;48.800;9.002;2024-03-06T11:07:03;48.46;39.92;64.46;;
186;Laerm;55473;48.800;9.002;2024-03-06T11:09:37;51.45;41.22;70.33;;
186;Laerm;55473;48.800;9.002;2024-03-06T11:12:05;45.89;40.00;64.49;;
186;Laerm;55473;48.800;9.002;2024-03-06T11:14:37;46.44;39.67;64.61;;
186;Laerm;55473;48.800;9.002;2024-03-06T11:17:09;49.55;40.06;63.61;;
186;Laerm;55473;48.800;9.002;2024-03-06T11:28:21;48.01;40.37;61.57;;
186;Laerm;55473;48.800;9.002;2024-03-06T11:33:20;47.33;40.96;58.31;;
186;Laerm;55473;48.800;9.002;2024-03-06T11:36:24;50.63;41.02;65.12;;
186;Laerm;55473;48.800;9.002;2024-03-06T11:41:31;46.74;41.03;60.31;;
186;Laerm;55473;48.800;9.002;2024-03-06T11:44:00;47.56;39.42;67.76;;
186;Laerm;55473;48.800;9.002;2024-03-06T11:46:58;48.86;41.54;60.36;;
186;Laerm;55473;48.800;9.002;2024-03-06T11:49:31;46.88;40.24;65.33;;
186;Laerm;55473;48.800;9.002;2024-03-06T11:52:03;48.03;41.07;67.93;;
186;Laerm;55473;48.800;9.002;2024-03-06T11:54:34;47.34;41.33;61.14;;
186;Laerm;55473;48.800;9.002;2024-03-06T11:57:03;47.67;41.72;70.24;;
186;Laerm;55473;48.800;9.002;2024-03-06T11:59:37;49.66;42.41;67.84;;
186;Laerm;55473;48.800;9.002;2024-03-06T12:02:06;48.99;41.13;68.98;;
186;Laerm;55473;48.800;9.002;2024-03-06T12:04:35;50.25;41.67;66.96;;
186;Laerm;55473;48.800;9.002;2024-03-06T12:07:04;50.76;42.24;67.43;;
186;Laerm;55473;48.800;9.002;2024-03-06T12:09:37;51.77;42.90;70.57;;
186;Laerm;55473;48.800;9.002;2024-03-06T12:12:04;50.19;41.29;69.09;;
186;Laerm;55473;48.800;9.002;2024-03-06T12:14:31;48.08;41.18;69.89;;
186;Laerm;55473;48.800;9.002;2024-03-06T12:17:01;49.72;41.48;66.58;;
186;Laerm;55473;48.800;9.002;2024-03-06T12:19:35;48.93;40.25;70.59;;
186;Laerm;55473;48.800;9.002;2024-03-06T12:22:04;48.63;39.31;69.35;;
186;Laerm;55473;48.800;9.002;2024-03-06T12:24:31;48.57;40.28;63.23;;
186;Laerm;55473;48.800;9.002;2024-03-06T12:27:05;47.21;40.42;70.24;;
186;Laerm;55473;48.800;9.002;2024-03-06T12:29:35;49.18;41.01;67.58;;
186;Laerm;55473;48.800;9.002;2024-03-06T12:32:02;50.81;41.72;68.08;;
186;Laerm;55473;48.800;9.002;2024-03-06T12:34:28;46.22;39.29;65.18;;
186;Laerm;55473;48.800;9.002;2024-03-06T12:36:55;49.36;39.98;66.41;;
186;Laerm;55473;48.800;9.002;2024-03-06T12:39:23;51.02;39.87;68.05;;
186;Laerm;55473;48.800;9.002;2024-03-06T12:41:50;49.89;41.67;69.02;;
186;Laerm;55473;48.800;9.002;2024-03-06T12:44:18;46.00;39.97;64.96;;
186;Laerm;55473;48.800;9.002;2024-03-06T12:46:44;48.44;40.46;72.73;;
186;Laerm;55473;48.800;9.002;2024-03-06T12:49:11;50.37;41.17;67.77;;
186;Laerm;55473;48.800;9.002;2024-03-06T12:51:36;49.01;41.03;66.75;;
186;Laerm;55473;48.800;9.002;2024-03-06T12:54:02;48.20;41.07;69.09;;
186;Laerm;55473;48.800;9.002;2024-03-06T12:56:29;47.65;40.87;68.18;;
186;Laerm;55473;48.800;9.002;2024-03-06T12:58:55;52.75;39.10;71.48;;
186;Laerm;55473;48.800;9.002;2024-03-06T13:01:21;49.28;40.05;66.86;;
186;Laerm;55473;48.800;9.002;2024-03-06T13:03:47;50.51;39.18;65.03;;
186;Laerm;55473;48.800;9.002;2024-03-06T13:06:15;48.33;39.92;63.04;;
186;Laerm;55473;48.800;9.002;2024-03-06T13:08:41;47.98;40.06;66.51;;
186;Laerm;55473;48.800;9.002;2024-03-06T13:11:07;45.89;39.66;69.16;;
186;Laerm;55473;48.800;9.002;2024-03-06T13:13:35;47.19;38.74;68.41;;
186;Laerm;55473;48.800;9.002;2024-03-06T13:16:01;45.86;40.73;63.47;;
186;Laerm;55473;48.800;9.002;2024-03-06T13:18:27;48.81;40.63;61.96;;
186;Laerm;55473;48.800;9.002;2024-03-06T13:20:56;44.68;39.62;60.52;;
186;Laerm;55473;48.800;9.002;2024-03-06T13:23:24;45.47;39.03;58.22;;
186;Laerm;55473;48.800;9.002;2024-03-06T13:25:50;47.73;40.47;59.71;;
186;Laerm;55473;48.800;9.002;2024-03-06T13:28:16;47.84;39.82;62.01;;
186;Laerm;55473;48.800;9.002;2024-03-06T13:30:42;47.03;39.78;67.37;;
186;Laerm;55473;48.800;9.002;2024-03-06T13:33:07;46.93;38.53;63.07;;
186;Laerm;55473;48.800;9.002;2024-03-06T13:35:34;46.94;39.67;66.80;;
186;Laerm;55473;48.800;9.002;2024-03-06T13:37:59;47.43;39.35;66.40;;
186;Laerm;55473;48.800;9.002;2024-03-06T13:40:28;45.13;39.71;59.11;;
186;Laerm;55473;48.800;9.002;2024-03-06T13:42:54;46.41;39.79;65.72;;
186;Laerm;55473;48.800;9.002;2024-03-06T13:45:20;48.40;39.71;66.95;;
186;Laerm;55473;48.800;9.002;2024-03-06T13:47:46;50.08;40.65;73.54;;
186;Laerm;55473;48.800;9.002;2024-03-06T13:50:16;47.98;40.21;67.61;;
186;Laerm;55473;48.800;9.002;2024-03-06T13:52:45;51.44;42.87;67.48;;
186;Laerm;55473;48.800;9.002;2024-03-06T13:55:11;46.71;40.40;64.94;;
186;Laerm;55473;48.800;9.002;2024-03-06T13:57:39;46.22;40.46;64.67;;
186;Laerm;55473;48.800;9.002;2024-03-06T14:00:08;47.14;39.58;61.81;;
186;Laerm;55473;48.800;9.002;2024-03-06T14:02:46;51.43;41.72;66.64;;
186;Laerm;55473;48.800;9.002;2024-03-06T14:05:13;47.95;41.92;62.20;;
186;Laerm;55473;48.800;9.002;2024-03-06T14:07:42;45.77;39.52;69.22;;
186;Laerm;55473;48.800;9.002;2024-03-06T14:10:09;45.74;39.45;62.99;;
186;Laerm;55473;48.800;9.002;2024-03-06T14:12:36;44.83;40.06;60.97;;
186;Laerm;55473;48.800;9.002;2024-03-06T14:15:07;52.63;41.13;78.89;;
186;Laerm;55473;48.800;9.002;2024-03-06T14:17:41;50.31;41.99;67.62;;
186;Laerm;55473;48.800;9.002;2024-03-06T14:20:08;48.28;40.73;69.30;;
186;Laerm;55473;48.800;9.002;2024-03-06T14:22:38;47.55;40.27;69.85;;
186;Laerm;55473;48.800;9.002;2024-03-06T14:25:04;48.89;41.73;69.16;;
186;Laerm;55473;48.800;9.002;2024-03-06T14:27:30;48.50;41.06;71.38;;
186;Laerm;55473;48.800;9.002;2024-03-06T14:29:56;51.27;42.64;70.50;;